sensor_id;sensor_type;location;lat;lon;timestamp;pressure;altitude;pressure_sealevel;temperature;humidity
63808;BME280;49961;43.970;22.868;2023-04-30T00:00:16;101159.31;;;9.12;100.00
63808;BME280;49961;43.970;22.868;2023-04-30T00:01:16;101230.38;;;9.56;100.00
63808;BME280;49961;43.970;22.868;2023-04-30T00:02:16;101233.56;;;9.54;100.00
63808;BME280;49961;43.970;22.868;2023-04-30T00:03:17;101232.41;;;9.52;100.00
63808;BME280;49961;43.970;22.868;2023-04-30T00:04:17;101229.66;;;9.48;100.00
63808;BME280;49961;43.970;22.868;2023-04-30T00:05:18;101231.69;;;9.44;100.00
63808;BME280;49961;43.970;22.868;2023-04-30T00:06:18;101216.69;;;9.42;100.00
63808;BME280;49961;43.970;22.868;2023-04-30T00:07:19;101228.19;;;9.40;100.00
63808;BME280;49961;43.970;22.868;2023-04-30T00:08:19;101219.47;;;9.42;100.00
63808;BME280;49961;43.970;22.868;2023-04-30T00:09:19;101217.47;;;9.42;100.00
63808;BME280;49961;43.970;22.868;2023-04-30T00:10:20;101230.94;;;9.40;100.00
63808;BME280;49961;43.970;22.868;2023-04-30T00:11:20;101228.22;;;9.37;100.00
63808;BME280;49961;43.970;22.868;2023-04-30T00:12:20;101223.88;;;9.36;100.00
63808;BME280;49961;43.970;22.868;2023-04-30T00:13:21;101222.31;;;9.35;100.00
63808;BME280;49961;43.970;22.868;2023-04-30T00:14:21;101216.44;;;9.26;100.00
63808;BME280;49961;43.970;22.868;2023-04-30T00:15:22;101237.72;;;9.32;100.00
63808;BME280;49961;43.970;22.868;2023-04-30T00:16:22;101221.97;;;9.29;100.00
63808;BME280;49961;43.970;22.868;2023-04-30T00:17:23;101234.59;;;9.30;100.00
63808;BME280;49961;43.970;22.868;2023-04-30T00:18:23;101231.84;;;9.30;100.00
63808;BME280;49961;43.970;22.868;2023-04-30T00:19:24;101233.44;;;9.28;100.00
63808;BME280;49961;43.970;22.868;2023-04-30T00:20:24;101229.09;;;9.27;100.00
63808;BME280;49961;43.970;22.868;2023-04-30T00:21:24;101232.28;;;9.25;100.00
63808;BME280;49961;43.970;22.868;2023-04-30T00:22:25;101230.72;;;9.24;100.00
63808;BME280;49961;43.970;22.868;2023-04-30T00:23:25;101234.63;;;9.27;100.00
63808;BME280;49961;43.970;22.868;2023-04-30T00:24:27;101108.53;;;8.48;100.00
63808;BME280;49961;43.970;22.868;2023-04-30T00:25:27;101235.00;;;9.29;100.00
63808;BME280;49961;43.970;22.868;2023-04-30T00:26:27;101232.66;;;9.27;100.00
63808;BME280;49961;43.970;22.868;2023-04-30T00:27:28;101236.97;;;9.28;100.00
63808;BME280;49961;43.970;22.868;2023-04-30T00:28:29;101236.56;;;9.30;100.00
63808;BME280;49961;43.970;22.868;2023-04-30T00:29:29;101237.78;;;9.29;100.00
63808;BME280;49961;43.970;22.868;2023-04-30T00:30:30;101233.03;;;9.26;100.00
63808;BME280;49961;43.970;22.868;2023-04-30T00:31:31;101237.00;;;9.25;100.00
63808;BME280;49961;43.970;22.868;2023-04-30T00:32:31;101231.50;;;9.21;100.00
63808;BME280;49961;43.970;22.868;2023-04-30T00:33:31;101233.88;;;9.23;100.00
63808;BME280;49961;43.970;22.868;2023-04-30T00:34:32;101235.09;;;9.18;100.00
63808;BME280;49961;43.970;22.868;2023-04-30T00:35:32;101240.25;;;9.16;100.00
63808;BME280;49961;43.970;22.868;2023-04-30T00:36:33;101131.00;;;8.50;100.00
63808;BME280;49961;43.970;22.868;2023-04-30T00:37:33;101232.75;;;9.13;100.00
63808;BME280;49961;43.970;22.868;2023-04-30T00:38:34;101233.94;;;9.12;100.00
63808;BME280;49961;43.970;22.868;2023-04-30T00:39:34;101231.59;;;9.11;100.00
63808;BME280;49961;43.970;22.868;2023-04-30T00:40:35;101054.84;;;7.95;100.00
63808;BME280;49961;43.970;22.868;2023-04-30T00:41:37;101236.38;;;9.07;100.00
63808;BME280;49961;43.970;22.868;2023-04-30T00:42:37;101236.38;;;9.07;100.00
63808;BME280;49961;43.970;22.868;2023-04-30T00:43:38;101234.03;;;9.05;100.00
63808;BME280;49961;43.970;22.868;2023-04-30T00:44:38;101231.66;;;9.04;100.00
63808;BME280;49961;43.970;22.868;2023-04-30T00:45:39;101230.09;;;9.03;100.00
63808;BME280;49961;43.970;22.868;2023-04-30T00:46:39;101215.91;;;8.97;100.00
63808;BME280;49961;43.970;22.868;2023-04-30T00:47:40;101216.72;;;8.98;100.00
63808;BME280;49961;43.970;22.868;2023-04-30T00:48:40;101166.44;;;8.66;100.00
63808;BME280;49961;43.970;22.868;2023-04-30T00:49:40;101226.13;;;9.04;100.00
63808;BME280;49961;43.970;22.868;2023-04-30T00:50:43;101238.00;;;9.04;100.00
63808;BME280;49961;43.970;22.868;2023-04-30T00:51:44;101138.56;;;8.43;100.00
63808;BME280;49961;43.970;22.868;2023-04-30T00:52:44;101139.31;;;8.47;100.00
63808;BME280;49961;43.970;22.868;2023-04-30T00:53:45;101227.28;;;9.06;100.00
63808;BME280;49961;43.970;22.868;2023-04-30T00:54:46;101226.09;;;9.07;100.00
63808;BME280;49961;43.970;22.868;2023-04-30T00:55:47;101214.41;;;8.89;100.00
63808;BME280;49961;43.970;22.868;2023-04-30T00:56:47;101227.28;;;9.06;100.00
63808;BME280;49961;43.970;22.868;2023-04-30T00:57:49;101222.97;;;9.05;100.00
63808;BME280;49961;43.970;22.868;2023-04-30T00:58:49;101228.53;;;9.02;100.00
63808;BME280;49961;43.970;22.868;2023-04-30T00:59:53;101210.03;;;8.92;100.00
63808;BME280;49961;43.970;22.868;2023-04-30T01:00:54;101228.53;;;9.02;100.00
63808;BME280;49961;43.970;22.868;2023-04-30T01:01:54;101224.16;;;9.04;100.00
63808;BME280;49961;43.970;22.868;2023-04-30T01:02:55;101219.09;;;8.96;100.00
63808;BME280;49961;43.970;22.868;2023-04-30T01:03:56;101230.09;;;9.03;100.00
63808;BME280;49961;43.970;22.868;2023-04-30T01:04:56;101226.53;;;9.02;100.00
63808;BME280;49961;43.970;22.868;2023-04-30T01:05:57;101236.00;;;9.05;100.00
63808;BME280;49961;43.970;22.868;2023-04-30T01:06:58;101225.72;;;9.05;100.00
63808;BME280;49961;43.970;22.868;2023-04-30T01:07:59;101230.84;;;9.07;100.00
63808;BME280;49961;43.970;22.868;2023-04-30T01:09:00;101225.28;;;9.10;100.00
63808;BME280;49961;43.970;22.868;2023-04-30T01:10:01;101235.53;;;9.13;100.00
63808;BME280;49961;43.970;22.868;2023-04-30T01:13:52;101232.03;;;9.09;100.00
63808;BME280;49961;43.970;22.868;2023-04-30T01:15:13;101232.03;;;9.09;100.00
63808;BME280;49961;43.970;22.868;2023-04-30T01:16:21;101061.88;;;8.03;100.00
63808;BME280;49961;43.970;22.868;2023-04-30T01:17:55;101048.13;;;7.96;100.00
63808;BME280;49961;43.970;22.868;2023-04-30T01:19:04;101225.31;;;9.07;100.00
63808;BME280;49961;43.970;22.868;2023-04-30T01:20:08;101212.00;;;8.91;100.00
63808;BME280;49961;43.970;22.868;2023-04-30T01:21:11;101199.06;;;8.81;100.00
63808;BME280;49961;43.970;22.868;2023-04-30T01:22:39;101225.03;;;8.94;100.00
63808;BME280;49961;43.970;22.868;2023-04-30T01:25:41;101234.88;;;8.95;100.00
63808;BME280;49961;43.970;22.868;2023-04-30T01:26:59;101226.59;;;8.95;100.00
63808;BME280;49961;43.970;22.868;2023-04-30T01:29:11;101225.47;;;8.89;100.00
63808;BME280;49961;43.970;22.868;2023-04-30T01:30:12;101223.84;;;8.95;100.00
63808;BME280;49961;43.970;22.868;2023-04-30T01:31:16;101225.41;;;8.96;100.00
63808;BME280;49961;43.970;22.868;2023-04-30T01:32:17;101232.09;;;8.99;100.00
63808;BME280;49961;43.970;22.868;2023-04-30T01:33:17;101238.41;;;8.99;100.00
63808;BME280;49961;43.970;22.868;2023-04-30T01:34:18;101236.81;;;9.02;100.00
63808;BME280;49961;43.970;22.868;2023-04-30T01:35:18;101241.09;;;9.10;100.00
63808;BME280;49961;43.970;22.868;2023-04-30T01:38:23;101233.53;;;9.17;100.00
63808;BME280;49961;43.970;22.868;2023-04-30T01:39:33;101231.94;;;9.16;100.00
63808;BME280;49961;43.970;22.868;2023-04-30T01:40:55;101202.47;;;8.99;100.00
63808;BME280;49961;43.970;22.868;2023-04-30T01:42:05;101223.28;;;9.14;100.00
63808;BME280;49961;43.970;22.868;2023-04-30T01:46:23;101213.31;;;9.24;100.00
63808;BME280;49961;43.970;22.868;2023-04-30T01:47:38;101220.81;;;9.27;100.00
63808;BME280;49961;43.970;22.868;2023-04-30T01:48:48;101237.38;;;9.30;100.00
63808;BME280;49961;43.970;22.868;2023-04-30T01:50:09;101214.41;;;9.33;100.00
63808;BME280;49961;43.970;22.868;2023-04-30T01:51:19;101208.44;;;9.38;100.00
63808;BME280;49961;43.970;22.868;2023-04-30T01:52:31;101206.81;;;9.41;100.00
63808;BME280;49961;43.970;22.868;2023-04-30T01:53:40;101147.47;;;9.12;100.00
63808;BME280;49961;43.970;22.868;2023-04-30T01:54:49;101074.44;;;8.65;100.00
63808;BME280;49961;43.970;22.868;2023-04-30T01:55:57;101211.03;;;9.56;100.00
63808;BME280;49961;43.970;22.868;2023-04-30T01:57:13;101081.88;;;8.75;100.00
63808;BME280;49961;43.970;22.868;2023-04-30T01:58:15;101202.34;;;9.54;100.00
63808;BME280;49961;43.970;22.868;2023-04-30T01:59:16;101199.19;;;9.55;100.00
63808;BME280;49961;43.970;22.868;2023-04-30T02:00:17;101202.34;;;9.54;100.00
63808;BME280;49961;43.970;22.868;2023-04-30T02:01:29;101213.78;;;9.56;100.00
63808;BME280;49961;43.970;22.868;2023-04-30T02:02:30;101206.28;;;9.56;100.00
63808;BME280;49961;43.970;22.868;2023-04-30T02:03:31;101201.91;;;9.59;100.00
63808;BME280;49961;43.970;22.868;2023-04-30T02:04:32;101203.03;;;9.65;100.00
63808;BME280;49961;43.970;22.868;2023-04-30T02:05:33;101199.84;;;9.66;100.00
63808;BME280;49961;43.970;22.868;2023-04-30T02:06:33;101199.84;;;9.66;100.00
63808;BME280;49961;43.970;22.868;2023-04-30T02:07:39;101197.84;;;9.67;100.00
63808;BME280;49961;43.970;22.868;2023-04-30T02:08:40;101197.09;;;9.66;100.00
63808;BME280;49961;43.970;22.868;2023-04-30T02:09:40;101113.84;;;9.13;100.00
63808;BME280;49961;43.970;22.868;2023-04-30T02:10:40;101204.09;;;9.74;100.00
63808;BME280;49961;43.970;22.868;2023-04-30T02:11:41;101028.28;;;8.66;100.00
63808;BME280;49961;43.970;22.868;2023-04-30T02:12:41;101176.97;;;9.62;100.00
63808;BME280;49961;43.970;22.868;2023-04-30T02:13:42;101151.00;;;9.53;100.00
63808;BME280;49961;43.970;22.868;2023-04-30T02:14:42;101208.31;;;9.86;100.00
63808;BME280;49961;43.970;22.868;2023-04-30T02:15:42;101203.13;;;9.91;100.00
63808;BME280;49961;43.970;22.868;2023-04-30T02:16:43;101130.91;;;9.45;100.00
63808;BME280;49961;43.970;22.868;2023-04-30T02:17:43;101196.28;;;9.99;100.00
63808;BME280;49961;43.970;22.868;2023-04-30T02:18:44;101199.44;;;10.05;100.00
63808;BME280;49961;43.970;22.868;2023-04-30T02:19:44;101076.16;;;9.30;100.00
63808;BME280;49961;43.970;22.868;2023-04-30T02:20:45;101194.19;;;10.10;100.00
63808;BME280;49961;43.970;22.868;2023-04-30T02:21:45;101193.44;;;10.10;100.00
63808;BME280;49961;43.970;22.868;2023-04-30T02:22:45;101183.25;;;10.00;100.00
63808;BME280;49961;43.970;22.868;2023-04-30T02:23:46;101190.19;;;10.15;100.00
63808;BME280;49961;43.970;22.868;2023-04-30T02:24:46;101201.69;;;10.13;100.00
63808;BME280;49961;43.970;22.868;2023-04-30T02:25:47;101193.78;;;10.12;100.00
63808;BME280;49961;43.970;22.868;2023-04-30T02:26:47;101200.13;;;10.12;100.00
63808;BME280;49961;43.970;22.868;2023-04-30T02:27:48;101198.13;;;10.13;100.00
63808;BME280;49961;43.970;22.868;2023-04-30T02:28:49;101199.28;;;10.15;100.00
63808;BME280;49961;43.970;22.868;2023-04-30T02:29:50;101205.59;;;10.16;100.00
63808;BME280;49961;43.970;22.868;2023-04-30T02:30:51;101192.56;;;10.16;100.00
63808;BME280;49961;43.970;22.868;2023-04-30T02:31:51;101192.16;;;10.14;100.00
63808;BME280;49961;43.970;22.868;2023-04-30T02:32:51;101193.72;;;10.15;100.00
63808;BME280;49961;43.970;22.868;2023-04-30T02:33:52;101180.72;;;10.12;100.00
63808;BME280;49961;43.970;22.868;2023-04-30T02:34:52;101038.34;;;9.20;100.00
63808;BME280;49961;43.970;22.868;2023-04-30T02:35:53;101203.19;;;10.18;100.00
63808;BME280;49961;43.970;22.868;2023-04-30T02:36:54;101194.16;;;10.14;100.00
63808;BME280;49961;43.970;22.868;2023-04-30T02:37:54;101194.94;;;10.14;100.00
63808;BME280;49961;43.970;22.868;2023-04-30T02:38:55;101198.13;;;10.13;100.00
63808;BME280;49961;43.970;22.868;2023-04-30T02:39:56;101195.00;;;10.11;100.00
63808;BME280;49961;43.970;22.868;2023-04-30T02:40:56;101121.63;;;9.62;100.00
63808;BME280;49961;43.970;22.868;2023-04-30T02:41:57;101202.50;;;10.10;100.00
63808;BME280;49961;43.970;22.868;2023-04-30T02:42:57;101192.31;;;10.04;100.00
63808;BME280;49961;43.970;22.868;2023-04-30T02:43:58;101193.88;;;10.05;100.00
63808;BME280;49961;43.970;22.868;2023-04-30T02:44:58;101191.47;;;10.07;100.00
63808;BME280;49961;43.970;22.868;2023-04-30T02:45:58;101194.63;;;10.09;100.00
63808;BME280;49961;43.970;22.868;2023-04-30T02:46:59;101189.03;;;10.12;100.00
63808;BME280;49961;43.970;22.868;2023-04-30T02:48:00;101203.25;;;10.14;100.00
63808;BME280;49961;43.970;22.868;2023-04-30T02:49:01;101196.56;;;10.12;100.00
63808;BME280;49961;43.970;22.868;2023-04-30T02:50:01;101199.72;;;10.14;100.00
63808;BME280;49961;43.970;22.868;2023-04-30T02:51:01;101196.94;;;10.14;100.00
63808;BME280;49961;43.970;22.868;2023-04-30T02:52:03;101195.41;;;10.09;100.00
63808;BME280;49961;43.970;22.868;2023-04-30T02:53:04;101190.28;;;10.08;100.00
63808;BME280;49961;43.970;22.868;2023-04-30T02:54:04;101198.13;;;10.13;100.00
63808;BME280;49961;43.970;22.868;2023-04-30T02:55:05;101203.31;;;10.11;100.00
63808;BME280;49961;43.970;22.868;2023-04-30T02:56:06;101201.31;;;10.11;100.00
63808;BME280;49961;43.970;22.868;2023-04-30T02:57:07;101170.66;;;9.92;100.00
63808;BME280;49961;43.970;22.868;2023-04-30T02:58:07;101183.41;;;9.86;100.00
63808;BME280;49961;43.970;22.868;2023-04-30T02:59:08;101124.47;;;9.55;100.00
63808;BME280;49961;43.970;22.868;2023-04-30T03:00:09;101188.50;;;9.91;100.00
63808;BME280;49961;43.970;22.868;2023-04-30T03:01:09;101206.88;;;10.11;100.00
63808;BME280;49961;43.970;22.868;2023-04-30T03:02:10;101065.53;;;9.25;100.00
63808;BME280;49961;43.970;22.868;2023-04-30T03:03:11;101205.25;;;10.14;100.00
63808;BME280;49961;43.970;22.868;2023-04-30T03:04:12;101185.16;;;10.06;100.00
63808;BME280;49961;43.970;22.868;2023-04-30T03:05:13;101210.75;;;10.17;100.00
63808;BME280;49961;43.970;22.868;2023-04-30T03:06:14;101197.66;;;10.18;100.00
63808;BME280;49961;43.970;22.868;2023-04-30T03:07:15;101202.78;;;10.19;100.00
63808;BME280;49961;43.970;22.868;2023-04-30T03:08:15;101200.44;;;10.18;100.00
63808;BME280;49961;43.970;22.868;2023-04-30T03:09:16;101202.03;;;10.19;100.00
63808;BME280;49961;43.970;22.868;2023-04-30T03:10:17;101197.75;;;10.11;100.00
63808;BME280;49961;43.970;22.868;2023-04-30T03:11:18;101204.81;;;10.15;100.00
63808;BME280;49961;43.970;22.868;2023-04-30T03:12:18;101211.16;;;10.16;100.00
63808;BME280;49961;43.970;22.868;2023-04-30T03:13:19;101208.38;;;10.16;100.00
63808;BME280;49961;43.970;22.868;2023-04-30T03:14:20;101208.03;;;10.14;100.00
63808;BME280;49961;43.970;22.868;2023-04-30T03:15:20;101215.94;;;10.12;100.00
63808;BME280;49961;43.970;22.868;2023-04-30T03:16:20;101164.63;;;9.70;100.00
63808;BME280;49961;43.970;22.868;2023-04-30T03:17:21;101200.16;;;10.09;100.00
63808;BME280;49961;43.970;22.868;2023-04-30T03:18:23;101200.22;;;10.02;100.00
63808;BME280;49961;43.970;22.868;2023-04-30T03:19:24;101202.19;;;10.05;100.00
63808;BME280;49961;43.970;22.868;2023-04-30T03:20:24;101212.84;;;10.03;100.00
63808;BME280;49961;43.970;22.868;2023-04-30T03:21:25;101207.75;;;10.01;100.00
63808;BME280;49961;43.970;22.868;2023-04-30T03:22:25;101210.53;;;10.01;100.00
63808;BME280;49961;43.970;22.868;2023-04-30T03:23:26;101208.16;;;10.00;100.00
63808;BME280;49961;43.970;22.868;2023-04-30T03:24:27;101212.50;;;10.01;100.00
63808;BME280;49961;43.970;22.868;2023-04-30T03:25:27;101210.06;;;10.03;100.00
63808;BME280;49961;43.970;22.868;2023-04-30T03:26:28;101211.69;;;10.00;100.00
63808;BME280;49961;43.970;22.868;2023-04-30T03:27:28;101205.03;;;9.94;100.00
63808;BME280;49961;43.970;22.868;2023-04-30T03:28:29;101207.88;;;9.91;100.00
63808;BME280;49961;43.970;22.868;2023-04-30T03:29:29;101212.19;;;9.92;100.00
63808;BME280;49961;43.970;22.868;2023-04-30T03:30:29;101211.88;;;9.86;100.00
63808;BME280;49961;43.970;22.868;2023-04-30T03:31:30;101202.56;;;9.70;100.00
63808;BME280;49961;43.970;22.868;2023-04-30T03:32:30;101210.78;;;9.77;100.00
63808;BME280;49961;43.970;22.868;2023-04-30T03:33:31;101155.47;;;9.40;100.00
63808;BME280;49961;43.970;22.868;2023-04-30T03:34:32;101207.28;;;9.73;100.00
63808;BME280;49961;43.970;22.868;2023-04-30T03:35:33;101115.06;;;9.12;100.00
63808;BME280;49961;43.970;22.868;2023-04-30T03:36:33;101218.69;;;9.78;100.00
63808;BME280;49961;43.970;22.868;2023-04-30T03:37:34;101213.59;;;9.73;100.00
63808;BME280;49961;43.970;22.868;2023-04-30T03:38:34;101113.22;;;8.99;100.00
63808;BME280;49961;43.970;22.868;2023-04-30T03:39:35;101214.06;;;9.68;100.00
63808;BME280;49961;43.970;22.868;2023-04-30T03:40:35;101222.31;;;9.72;100.00
63808;BME280;49961;43.970;22.868;2023-04-30T03:41:36;101222.69;;;9.74;100.00
63808;BME280;49961;43.970;22.868;2023-04-30T03:42:36;101216.75;;;9.75;100.00
63808;BME280;49961;43.970;22.868;2023-04-30T03:43:36;101220.69;;;9.78;100.00
63808;BME280;49961;43.970;22.868;2023-04-30T03:44:37;101227.38;;;9.80;100.00
63808;BME280;49961;43.970;22.868;2023-04-30T03:45:38;101226.19;;;9.81;100.00
63808;BME280;49961;43.970;22.868;2023-04-30T03:46:38;101229.75;;;9.78;100.00
63808;BME280;49961;43.970;22.868;2023-04-30T03:47:39;101231.31;;;9.79;100.00
63808;BME280;49961;43.970;22.868;2023-04-30T03:48:39;101230.09;;;9.84;100.00
63808;BME280;49961;43.970;22.868;2023-04-30T03:49:39;101168.06;;;9.44;100.00
63808;BME280;49961;43.970;22.868;2023-04-30T03:50:40;101230.81;;;9.88;100.00
63808;BME280;49961;43.970;22.868;2023-04-30T03:51:40;101233.19;;;9.89;100.00
63808;BME280;49961;43.970;22.868;2023-04-30T03:52:41;101231.56;;;9.92;100.00
63808;BME280;49961;43.970;22.868;2023-04-30T03:53:41;101231.53;;;9.95;100.00
63808;BME280;49961;43.970;22.868;2023-04-30T03:54:42;101222.97;;;9.83;100.00
63808;BME280;49961;43.970;22.868;2023-04-30T03:55:42;101239.88;;;9.92;100.00
63808;BME280;49961;43.970;22.868;2023-04-30T03:56:43;101239.88;;;9.92;100.00
63808;BME280;49961;43.970;22.868;2023-04-30T03:57:43;101235.50;;;9.94;100.00
63808;BME280;49961;43.970;22.868;2023-04-30T03:58:44;101235.50;;;9.94;100.00
63808;BME280;49961;43.970;22.868;2023-04-30T03:59:44;101239.06;;;9.95;100.00
63808;BME280;49961;43.970;22.868;2023-04-30T04:00:45;101138.75;;;9.13;100.00
63808;BME280;49961;43.970;22.868;2023-04-30T04:01:47;101241.44;;;9.93;100.00
63808;BME280;49961;43.970;22.868;2023-04-30T04:02:47;101240.59;;;9.99;100.00
63808;BME280;49961;43.970;22.868;2023-04-30T04:03:48;101233.91;;;9.97;100.00
63808;BME280;49961;43.970;22.868;2023-04-30T04:04:49;101193.13;;;9.67;100.00
63808;BME280;49961;43.970;22.868;2023-04-30T04:05:50;101193.78;;;9.78;100.00
63808;BME280;49961;43.970;22.868;2023-04-30T04:06:50;101256.66;;;10.15;100.00
63808;BME280;49961;43.970;22.868;2023-04-30T04:07:51;101231.03;;;10.07;100.00
63808;BME280;49961;43.970;22.868;2023-04-30T04:08:51;101251.41;;;10.24;100.00
63808;BME280;49961;43.970;22.868;2023-04-30T04:09:51;101247.34;;;10.32;100.00
63808;BME280;49961;43.970;22.868;2023-04-30T04:10:52;101252.41;;;10.37;100.00
63808;BME280;49961;43.970;22.868;2023-04-30T04:11:52;101252.38;;;10.40;100.00
63808;BME280;49961;43.970;22.868;2023-04-30T04:12:53;101157.38;;;9.80;100.00
63808;BME280;49961;43.970;22.868;2023-04-30T04:13:53;101255.78;;;10.51;100.00
63808;BME280;49961;43.970;22.868;2023-04-30T04:14:54;101197.66;;;10.18;100.00
63808;BME280;49961;43.970;22.868;2023-04-30T04:15:55;101252.47;;;10.63;100.00
63808;BME280;49961;43.970;22.868;2023-04-30T04:16:55;101135.88;;;9.91;100.00
63808;BME280;49961;43.970;22.868;2023-04-30T04:17:57;101247.97;;;10.73;100.00
63808;BME280;49961;43.970;22.868;2023-04-30T04:18:57;101257.69;;;10.84;100.00
63808;BME280;49961;43.970;22.868;2023-04-30T04:19:57;101251.28;;;10.91;100.00
63808;BME280;49961;43.970;22.868;2023-04-30T04:20:58;101258.25;;;10.99;100.00
63808;BME280;49961;43.970;22.868;2023-04-30T04:22:00;101242.03;;;10.97;100.00
63808;BME280;49961;43.970;22.868;2023-04-30T04:23:01;101259.59;;;11.14;100.00
63808;BME280;49961;43.970;22.868;2023-04-30T04:24:01;101259.13;;;11.19;100.00
63808;BME280;49961;43.970;22.868;2023-04-30T04:25:07;101258.59;;;11.27;100.00
63808;BME280;49961;43.970;22.868;2023-04-30T04:26:08;101244.72;;;11.27;100.00
63808;BME280;49961;43.970;22.868;2023-04-30T04:27:09;101261.06;;;11.45;100.00
63808;BME280;49961;43.970;22.868;2023-04-30T04:28:10;101255.81;;;11.50;100.00
63808;BME280;49961;43.970;22.868;2023-04-30T04:29:10;101257.66;;;11.60;100.00
63808;BME280;49961;43.970;22.868;2023-04-30T04:30:11;101254.75;;;11.67;100.00
63808;BME280;49961;43.970;22.868;2023-04-30T04:31:12;101248.28;;;11.74;100.00
63808;BME280;49961;43.970;22.868;2023-04-30T04:32:13;101252.47;;;11.82;100.00
63808;BME280;49961;43.970;22.868;2023-04-30T04:33:13;101186.84;;;11.49;100.00
63808;BME280;49961;43.970;22.868;2023-04-30T04:34:14;101253.78;;;11.97;100.00
63808;BME280;49961;43.970;22.868;2023-04-30T04:35:15;101258.41;;;12.03;100.00
63808;BME280;49961;43.970;22.868;2023-04-30T04:36:16;101196.03;;;11.69;100.00
63808;BME280;49961;43.970;22.868;2023-04-30T04:37:17;101252.22;;;12.15;100.00
63808;BME280;49961;43.970;22.868;2023-04-30T04:38:17;101258.06;;;12.21;100.00
63808;BME280;49961;43.970;22.868;2023-04-30T04:39:18;101250.78;;;12.27;100.00
63808;BME280;49961;43.970;22.868;2023-04-30T04:40:18;101257.78;;;12.35;100.00
63808;BME280;49961;43.970;22.868;2023-04-30T04:41:19;101252.06;;;12.42;100.00
63808;BME280;49961;43.970;22.868;2023-04-30T04:42:20;101242.50;;;12.43;100.00
63808;BME280;49961;43.970;22.868;2023-04-30T04:43:20;101255.81;;;12.51;100.00
63808;BME280;49961;43.970;22.868;2023-04-30T04:44:21;101255.69;;;12.58;100.00
63808;BME280;49961;43.970;22.868;2023-04-30T04:45:22;101258.28;;;12.65;100.00
63808;BME280;49961;43.970;22.868;2023-04-30T04:46:23;101261.69;;;12.73;100.00
63808;BME280;49961;43.970;22.868;2023-04-30T04:47:24;101242.75;;;12.68;100.00
63808;BME280;49961;43.970;22.868;2023-04-30T04:48:26;101257.47;;;12.84;100.00
63808;BME280;49961;43.970;22.868;2023-04-30T04:49:26;101260.59;;;12.86;100.00
63808;BME280;49961;43.970;22.868;2023-04-30T04:50:26;101263.28;;;12.90;100.00
63808;BME280;49961;43.970;22.868;2023-04-30T04:51:27;101266.34;;;12.95;100.00
63808;BME280;49961;43.970;22.868;2023-04-30T04:52:27;101193.81;;;12.54;100.00
63808;BME280;49961;43.970;22.868;2023-04-30T04:53:28;101264.50;;;13.08;100.00
63808;BME280;49961;43.970;22.868;2023-04-30T04:54:28;101267.50;;;13.14;100.00
63808;BME280;49961;43.970;22.868;2023-04-30T04:55:28;101265.44;;;13.18;100.00
63808;BME280;49961;43.970;22.868;2023-04-30T04:56:29;101263.25;;;13.25;100.00
63808;BME280;49961;43.970;22.868;2023-04-30T04:57:29;101268.22;;;13.34;100.00
63808;BME280;49961;43.970;22.868;2023-04-30T04:58:30;101268.03;;;13.41;100.00
63808;BME280;49961;43.970;22.868;2023-04-30T04:59:30;101263.16;;;13.45;100.00
63808;BME280;49961;43.970;22.868;2023-04-30T05:00:31;101254.81;;;13.45;100.00
63808;BME280;49961;43.970;22.868;2023-04-30T05:01:33;101247.16;;;13.49;100.00
63808;BME280;49961;43.970;22.868;2023-04-30T05:02:33;101264.63;;;13.65;100.00
63808;BME280;49961;43.970;22.868;2023-04-30T05:03:34;101261.75;;;13.69;100.00
63808;BME280;49961;43.970;22.868;2023-04-30T05:04:36;101272.25;;;13.77;100.00
63808;BME280;49961;43.970;22.868;2023-04-30T05:05:36;101266.69;;;13.77;100.00
63808;BME280;49961;43.970;22.868;2023-04-30T05:06:36;101265.34;;;13.82;100.00
63808;BME280;49961;43.970;22.868;2023-04-30T05:07:37;101276.88;;;13.84;100.00
63808;BME280;49961;43.970;22.868;2023-04-30T05:08:37;101257.69;;;13.86;100.00
63808;BME280;49961;43.970;22.868;2023-04-30T05:09:38;101255.69;;;13.86;100.00
63808;BME280;49961;43.970;22.868;2023-04-30T05:10:38;101273.16;;;14.03;100.00
63808;BME280;49961;43.970;22.868;2023-04-30T05:11:39;101269.84;;;14.08;100.00
63808;BME280;49961;43.970;22.868;2023-04-30T05:12:40;101266.03;;;14.14;100.00
63808;BME280;49961;43.970;22.868;2023-04-30T05:13:40;101266.75;;;14.18;100.00
63808;BME280;49961;43.970;22.868;2023-04-30T05:14:41;101233.47;;;13.99;100.00
63808;BME280;49961;43.970;22.868;2023-04-30T05:15:42;101273.72;;;14.26;100.00
63808;BME280;49961;43.970;22.868;2023-04-30T05:16:42;101264.44;;;14.29;100.00
63808;BME280;49961;43.970;22.868;2023-04-30T05:17:43;101247.94;;;14.22;100.00
63808;BME280;49961;43.970;22.868;2023-04-30T05:18:43;101251.06;;;14.24;100.00
63808;BME280;49961;43.970;22.868;2023-04-30T05:19:43;101259.22;;;14.31;100.00
63808;BME280;49961;43.970;22.868;2023-04-30T05:20:46;101192.59;;;13.80;100.00
63808;BME280;49961;43.970;22.868;2023-04-30T05:21:47;101263.22;;;14.30;100.00
63808;BME280;49961;43.970;22.868;2023-04-30T05:22:47;101252.00;;;14.34;100.00
63808;BME280;49961;43.970;22.868;2023-04-30T05:23:47;101257.56;;;14.34;100.00
63808;BME280;49961;43.970;22.868;2023-04-30T05:24:48;101255.00;;;14.39;100.00
63808;BME280;49961;43.970;22.868;2023-04-30T05:25:51;101256.47;;;14.44;100.00
63808;BME280;49961;43.970;22.868;2023-04-30T05:26:52;101257.25;;;14.44;100.00